Time;durP1;ratioP1;P1;durP2;ratioP2;P2;SDS_P1;SDS_P2;PMS_P1;PMS_P2;Temp;Humidity;BMP_temperature;BMP_pressure;BME280_temperature;BME280_humidity;BME280_pressure;Samples;Min_cycle;Max_cycle;Signal;HPM_P1;HPM_P2
2021/09/06 00:01:25;;;;;;;4.73;3.93;;;17.00;99.90;;;;;;5009084;28;20176;-82
2021/09/06 00:03:50;;;;;;;5.50;4.97;;;16.90;99.90;;;;;;5013683;28;20183;-82
2021/09/06 00:06:16;;;;;;;9.63;4.60;;;16.90;99.90;;;;;;5022663;28;20223;-82
2021/09/06 00:08:42;;;;;;;5.37;4.53;;;16.90;99.90;;;;;;5013045;28;20189;-83
2021/09/06 00:11:10;;;;;;;5.13;4.70;;;16.90;99.90;;;;;;5021812;28;20253;-83
2021/09/06 00:13:38;;;;;;;5.00;4.50;;;16.90;99.90;;;;;;5023420;28;20186;-83
2021/09/06 00:16:05;;;;;;;4.70;4.30;;;16.90;99.90;;;;;;5020781;28;20202;-83
2021/09/06 00:18:30;;;;;;;5.33;4.83;;;16.80;99.90;;;;;;5022675;28;20182;-82
2021/09/06 00:20:58;;;;;;;5.13;4.70;;;16.90;99.90;;;;;;5021859;28;20212;-82
2021/09/06 00:23:25;;;;;;;6.37;4.70;;;16.90;99.90;;;;;;5022991;28;20190;-82
2021/09/06 00:25:51;;;;;;;5.43;4.60;;;16.80;99.90;;;;;;5021621;28;20260;-83
2021/09/06 00:28:17;;;;;;;4.80;4.40;;;16.80;99.90;;;;;;5020030;28;20194;-82
2021/09/06 00:30:42;;;;;;;5.20;4.80;;;16.80;99.90;;;;;;5033144;28;20203;-83
2021/09/06 00:33:08;;;;;;;4.50;4.20;;;16.70;99.90;;;;;;5027206;28;20198;-83
2021/09/06 00:35:34;;;;;;;4.67;4.27;;;16.70;99.90;;;;;;5021680;28;20209;-83
2021/09/06 00:38:00;;;;;;;5.13;4.63;;;16.60;99.90;;;;;;5023017;28;20268;-83
2021/09/06 00:40:26;;;;;;;5.73;5.03;;;16.60;99.90;;;;;;5020928;28;20177;-83
2021/09/06 00:42:51;;;;;;;4.80;4.40;;;16.50;99.90;;;;;;5022043;28;20179;-83
2021/09/06 00:45:17;;;;;;;5.13;4.73;;;16.50;99.90;;;;;;5022121;28;20225;-83
2021/09/06 00:47:43;;;;;;;5.10;4.63;;;16.40;99.90;;;;;;5022172;28;20182;-82
2021/09/06 00:50:13;;;;;;;4.90;4.50;;;16.30;99.90;;;;;;5020468;28;20236;-83
2021/09/06 00:52:45;;;;;;;5.37;4.87;;;16.40;99.90;;;;;;5013283;28;20657;-84
2021/09/06 00:55:12;;;;;;;5.27;4.87;;;16.50;99.90;;;;;;5000374;28;20229;-82
2021/09/06 00:57:38;;;;;;;4.33;4.03;;;16.50;99.90;;;;;;5000013;28;20183;-83
2021/09/06 01:00:06;;;;;;;5.23;4.73;;;16.40;99.90;;;;;;4992583;28;20655;-83
2021/09/06 01:02:32;;;;;;;6.33;4.80;;;16.40;99.90;;;;;;4996206;28;20178;-83
2021/09/06 01:04:57;;;;;;;5.00;4.60;;;16.30;99.90;;;;;;5003830;28;20239;-82
2021/09/06 01:07:23;;;;;;;6.87;4.87;;;16.30;99.90;;;;;;4999050;28;20184;-82
2021/09/06 01:09:49;;;;;;;5.10;4.70;;;16.40;99.90;;;;;;5001822;28;20182;-82
2021/09/06 01:12:14;;;;;;;5.43;4.93;;;16.30;99.90;;;;;;5000458;28;20203;-83
2021/09/06 01:14:40;;;;;;;5.47;4.97;;;16.30;99.90;;;;;;5002720;28;20229;-83
2021/09/06 01:17:06;;;;;;;5.33;4.93;;;16.30;99.90;;;;;;5020915;28;20230;-83
2021/09/06 01:19:32;;;;;;;4.70;4.30;;;16.20;99.90;;;;;;5021295;28;20236;-82
2021/09/06 01:21:57;;;;;;;5.33;4.83;;;16.20;99.90;;;;;;5019806;28;20180;-83
2021/09/06 01:24:23;;;;;;;5.03;4.63;;;16.10;99.90;;;;;;5020848;28;20191;-83
2021/09/06 01:26:50;;;;;;;6.07;5.47;;;16.10;99.90;;;;;;5020034;28;20218;-82
2021/09/06 01:29:16;;;;;;;5.10;4.60;;;16.10;99.90;;;;;;5021517;28;20216;-83
2021/09/06 01:31:42;;;;;;;5.10;4.70;;;16.10;99.90;;;;;;5021752;28;20561;-82
2021/09/06 01:34:08;;;;;;;5.47;5.07;;;16.00;99.90;;;;;;5021084;28;20184;-83
2021/09/06 01:36:35;;;;;;;5.50;5.10;;;16.00;99.90;;;;;;5019948;28;20213;-82
2021/09/06 01:39:01;;;;;;;5.37;4.87;;;16.00;99.90;;;;;;5021345;28;20650;-83
2021/09/06 01:41:26;;;;;;;5.13;4.63;;;16.00;99.90;;;;;;5020725;28;20178;-83
2021/09/06 01:43:52;;;;;;;5.20;4.80;;;16.00;99.90;;;;;;5020010;28;20605;-82
2021/09/06 01:46:18;;;;;;;4.93;4.53;;;15.90;99.90;;;;;;5020395;28;20193;-83
2021/09/06 01:48:43;;;;;;;5.30;4.90;;;16.00;99.90;;;;;;5020806;28;20183;-83
2021/09/06 01:51:09;;;;;;;5.17;4.77;;;15.90;99.90;;;;;;5020499;28;20678;-82
2021/09/06 01:53:35;;;;;;;5.57;5.17;;;15.90;99.90;;;;;;5011055;28;20550;-83
2021/09/06 01:56:00;;;;;;;5.10;4.70;;;15.80;99.90;;;;;;5015770;28;20213;-82
2021/09/06 01:58:26;;;;;;;5.00;4.57;;;15.80;99.90;;;;;;5018919;28;20203;-82
2021/09/06 02:00:52;;;;;;;5.20;4.40;;;15.80;99.90;;;;;;5018928;28;20179;-82
2021/09/06 02:03:17;;;;;;;5.50;5.00;;;15.70;99.90;;;;;;5019692;28;20687;-82
2021/09/06 02:05:43;;;;;;;5.73;4.97;;;15.60;99.90;;;;;;5020802;28;20209;-82
2021/09/06 02:08:09;;;;;;;5.10;4.60;;;15.60;99.90;;;;;;5008144;28;20191;-83
2021/09/06 02:10:34;;;;;;;7.00;4.70;;;15.60;99.90;;;;;;4995929;28;20205;-82
2021/09/06 02:13:00;;;;;;;6.30;4.70;;;15.60;99.90;;;;;;5013991;28;20172;-82
2021/09/06 02:15:26;;;;;;;8.27;4.63;;;15.60;99.90;;;;;;5017114;28;20333;-83
2021/09/06 02:17:51;;;;;;;6.43;5.03;;;15.50;99.90;;;;;;5021396;28;20175;-83
2021/09/06 02:20:17;;;;;;;4.93;4.53;;;15.50;99.90;;;;;;5014225;28;20171;-82
2021/09/06 02:22:45;;;;;;;5.13;4.63;;;15.50;99.90;;;;;;5022743;28;20187;-83
2021/09/06 02:25:11;;;;;;;5.30;4.80;;;15.40;99.90;;;;;;5021243;28;20249;-83
2021/09/06 02:27:37;;;;;;;5.30;4.80;;;15.30;99.90;;;;;;5022162;28;20184;-82
2021/09/06 02:30:04;;;;;;;5.07;4.67;;;15.30;99.90;;;;;;5022487;28;20222;-82
2021/09/06 02:32:29;;;;;;;5.20;4.80;;;15.30;99.90;;;;;;5024717;28;20569;-82
2021/09/06 02:34:55;;;;;;;5.30;4.60;;;15.30;99.90;;;;;;5022955;28;20190;-83
2021/09/06 02:37:21;;;;;;;5.60;5.00;;;15.30;99.90;;;;;;5024141;28;20195;-82
2021/09/06 02:39:46;;;;;;;5.50;5.00;;;15.30;99.90;;;;;;5024166;28;20249;-83
2021/09/06 02:42:12;;;;;;;5.37;4.87;;;15.30;99.90;;;;;;5024308;28;20190;-83
2021/09/06 02:44:38;;;;;;;5.27;4.77;;;15.30;99.90;;;;;;5023951;28;20183;-83
2021/09/06 02:47:03;;;;;;;9.90;4.87;;;15.30;99.90;;;;;;5024047;28;20200;-83
2021/09/06 02:49:29;;;;;;;5.40;4.90;;;15.30;99.90;;;;;;5022351;28;20232;-82
2021/09/06 02:51:55;;;;;;;4.80;4.40;;;15.30;99.90;;;;;;5024574;28;20199;-82
2021/09/06 02:54:20;;;;;;;5.47;4.93;;;15.30;99.90;;;;;;5022903;28;20254;-82
2021/09/06 02:56:46;;;;;;;6.00;5.40;;;15.30;99.90;;;;;;5024637;28;20198;-82
2021/09/06 02:59:12;;;;;;;5.60;5.10;;;15.30;99.90;;;;;;5022316;28;20282;-83
2021/09/06 03:01:37;;;;;;;5.53;5.03;;;15.30;99.90;;;;;;5023711;28;20259;-83
2021/09/06 03:04:03;;;;;;;5.17;4.67;;;15.30;99.90;;;;;;5023094;28;20185;-83
2021/09/06 03:06:29;;;;;;;5.13;4.63;;;15.40;99.90;;;;;;5023601;28;20192;-82
2021/09/06 03:08:55;;;;;;;5.53;5.10;;;15.40;99.90;;;;;;5013698;28;20186;-83
2021/09/06 03:11:24;;;;;;;6.13;5.23;;;15.30;99.90;;;;;;5023488;28;20203;-83
2021/09/06 03:13:51;;;;;;;5.40;5.00;;;15.30;99.90;;;;;;5023209;28;20172;-82
2021/09/06 03:16:16;;;;;;;5.47;4.90;;;15.30;99.90;;;;;;5021327;28;20198;-81
2021/09/06 03:18:42;;;;;;;5.20;4.80;;;15.30;99.90;;;;;;5021022;28;20202;-83
2021/09/06 03:21:08;;;;;;;5.17;4.77;;;15.30;99.90;;;;;;5023125;28;20175;-83
2021/09/06 03:23:33;;;;;;;5.27;4.87;;;15.30;99.90;;;;;;5023644;28;20238;-82
2021/09/06 03:25:59;;;;;;;5.37;4.97;;;15.30;99.90;;;;;;5022800;28;20209;-83
2021/09/06 03:28:25;;;;;;;5.63;5.20;;;15.30;99.90;;;;;;5023046;28;20209;-82
2021/09/06 03:30:51;;;;;;;5.60;5.10;;;15.30;99.90;;;;;;5022831;28;20250;-83
2021/09/06 03:33:16;;;;;;;5.77;5.30;;;15.30;99.90;;;;;;5021727;28;20181;-83
2021/09/06 03:35:42;;;;;;;6.03;5.53;;;15.20;99.90;;;;;;5022874;28;20206;-82
2021/09/06 03:38:10;;;;;;;6.57;5.63;;;15.20;99.90;;;;;;5022511;28;20212;-82
2021/09/06 03:40:35;;;;;;;5.47;5.07;;;15.20;99.90;;;;;;5023171;28;20563;-83
2021/09/06 03:43:01;;;;;;;5.57;5.07;;;15.20;99.90;;;;;;5023253;28;20179;-82
2021/09/06 03:45:27;;;;;;;6.17;5.67;;;15.10;99.90;;;;;;5022235;28;20223;-82
2021/09/06 03:47:52;;;;;;;5.97;5.37;;;15.10;99.90;;;;;;5022181;28;20173;-83
2021/09/06 03:50:18;;;;;;;6.10;5.40;;;15.10;99.90;;;;;;5022193;28;20179;-82
2021/09/06 03:52:44;;;;;;;5.10;4.60;;;15.10;99.90;;;;;;5022713;28;20210;-82
2021/09/06 03:55:10;;;;;;;7.30;5.10;;;15.00;99.90;;;;;;5021322;28;20281;-83
2021/09/06 03:57:36;;;;;;;5.40;5.00;;;15.10;99.90;;;;;;5015189;28;20603;-83
2021/09/06 04:00:03;;;;;;;5.37;4.97;;;15.00;99.90;;;;;;5022210;28;20603;-82
2021/09/06 04:02:30;;;;;;;6.30;5.70;;;15.00;99.90;;;;;;4994804;28;20180;-82
2021/09/06 04:04:55;;;;;;;6.57;4.80;;;15.00;99.90;;;;;;5027761;28;20205;-82
2021/09/06 04:07:21;;;;;;;5.73;5.13;;;15.00;99.90;;;;;;5018209;28;20184;-83
2021/09/06 04:09:47;;;;;;;5.87;5.37;;;15.00;99.90;;;;;;5020834;28;20187;-83
2021/09/06 04:12:13;;;;;;;5.80;5.30;;;15.00;99.90;;;;;;5021905;28;20225;-83
2021/09/06 04:14:39;;;;;;;6.30;5.43;;;14.90;99.90;;;;;;5020590;28;20203;-83
2021/09/06 04:17:04;;;;;;;6.40;5.80;;;15.00;99.90;;;;;;5024904;28;20202;-83
2021/09/06 04:19:31;;;;;;;5.53;5.03;;;14.90;99.90;;;;;;5023086;28;20179;-82
2021/09/06 04:22:01;;;;;;;6.07;5.57;;;14.90;99.90;;;;;;5023398;28;20172;-82
2021/09/06 04:24:27;;;;;;;6.20;5.70;;;14.90;99.90;;;;;;5012616;28;20198;-82
2021/09/06 04:26:54;;;;;;;6.07;5.30;;;14.90;99.90;;;;;;5026030;28;20689;-83
2021/09/06 04:29:20;;;;;;;5.70;5.20;;;14.90;99.90;;;;;;5024096;28;20175;-83
2021/09/06 04:31:46;;;;;;;5.93;5.43;;;14.80;99.90;;;;;;5023708;28;20202;-83
2021/09/06 04:34:12;;;;;;;5.70;5.30;;;14.80;99.90;;;;;;5015950;28;20186;-82
2021/09/06 04:36:37;;;;;;;6.00;5.50;;;14.80;99.90;;;;;;5018348;28;20274;-82
2021/09/06 04:39:04;;;;;;;6.17;5.40;;;14.70;99.90;;;;;;5011246;28;20722;-80
2021/09/06 04:41:30;;;;;;;5.77;5.27;;;14.70;99.90;;;;;;5006943;28;20183;-82
2021/09/06 04:43:57;;;;;;;5.53;5.03;;;14.70;99.90;;;;;;5005358;28;20176;-82
2021/09/06 04:46:23;;;;;;;5.33;4.83;;;14.70;99.90;;;;;;5008150;28;20212;-82
2021/09/06 04:48:52;;;;;;;6.13;5.53;;;14.60;99.90;;;;;;5006534;28;20172;-80
2021/09/06 04:51:17;;;;;;;6.63;5.70;;;14.60;99.90;;;;;;5005411;28;20195;-82
2021/09/06 04:53:46;;;;;;;5.87;5.37;;;14.50;99.90;;;;;;5002547;28;20207;-83
2021/09/06 04:56:13;;;;;;;5.30;4.80;;;14.60;99.90;;;;;;5003904;28;20195;-81
2021/09/06 04:58:39;;;;;;;6.83;6.17;;;14.50;99.90;;;;;;5003452;28;20609;-82
2021/09/06 05:01:05;;;;;;;5.90;5.37;;;14.60;99.90;;;;;;5003459;28;20176;-84
2021/09/06 05:03:31;;;;;;;5.53;5.03;;;14.60;99.90;;;;;;5006357;28;20515;-83
2021/09/06 05:06:03;;;;;;;5.83;5.30;;;14.60;99.90;;;;;;5004615;28;20231;-82
2021/09/06 05:08:29;;;;;;;6.47;5.63;;;14.50;99.90;;;;;;4999514;28;20183;-82
2021/09/06 05:10:55;;;;;;;5.60;5.10;;;14.50;99.90;;;;;;5000794;28;20219;-83
2021/09/06 05:13:22;;;;;;;8.40;5.43;;;14.50;99.90;;;;;;5008843;28;20623;-83
2021/09/06 05:15:47;;;;;;;8.20;5.80;;;14.40;99.90;;;;;;5002629;28;20215;-84
2021/09/06 05:18:13;;;;;;;7.93;5.67;;;14.50;99.90;;;;;;5000668;28;20184;-83
2021/09/06 05:20:41;;;;;;;7.57;5.60;;;14.50;99.90;;;;;;5005274;28;20176;-82
2021/09/06 05:23:07;;;;;;;5.83;5.33;;;14.50;99.90;;;;;;5002307;28;20176;-82
2021/09/06 05:25:33;;;;;;;8.27;6.20;;;14.50;99.90;;;;;;5004857;28;20736;-83
2021/09/06 05:27:59;;;;;;;7.83;5.73;;;14.50;99.90;;;;;;5001646;28;20211;-82
2021/09/06 05:30:25;;;;;;;7.27;5.67;;;14.50;99.90;;;;;;5038840;22;20175;-81
2021/09/06 05:32:51;;;;;;;7.07;5.90;;;14.50;99.90;;;;;;5036682;28;20214;-81
2021/09/06 05:35:16;;;;;;;7.17;6.20;;;14.50;99.90;;;;;;5043309;28;20197;-81
2021/09/06 05:37:42;;;;;;;15.17;6.53;;;14.60;99.90;;;;;;5034070;28;20207;-81
2021/09/06 05:40:08;;;;;;;8.67;6.93;;;14.60;99.90;;;;;;5044366;28;20174;-82
2021/09/06 05:42:34;;;;;;;6.97;6.30;;;14.60;99.90;;;;;;5044814;28;20194;-82
2021/09/06 05:44:59;;;;;;;11.13;6.47;;;14.70;99.90;;;;;;5044068;28;20182;-81
2021/09/06 05:47:25;;;;;;;6.70;6.20;;;14.70;99.90;;;;;;5043086;28;20189;-82
2021/09/06 05:49:51;;;;;;;7.77;6.97;;;14.70;99.90;;;;;;5038780;28;20583;-81
2021/09/06 05:52:16;;;;;;;7.00;6.30;;;14.70;99.90;;;;;;5043059;28;20270;-82
2021/09/06 05:54:42;;;;;;;7.13;6.50;;;14.80;99.90;;;;;;5021966;28;20187;-81
2021/09/06 05:57:08;;;;;;;6.70;6.00;;;14.80;99.90;;;;;;5033183;28;20217;-82
2021/09/06 05:59:33;;;;;;;6.77;6.17;;;14.90;99.90;;;;;;5045014;28;20172;-82
2021/09/06 06:01:59;;;;;;;6.53;5.73;;;14.90;99.90;;;;;;5047920;28;20202;-81
2021/09/06 06:04:25;;;;;;;7.77;5.87;;;15.00;99.90;;;;;;5044221;28;20193;-81
2021/09/06 06:06:50;;;;;;;7.70;6.20;;;15.00;99.90;;;;;;5037469;28;20193;-82
2021/09/06 06:09:16;;;;;;;6.80;6.20;;;15.10;99.90;;;;;;5043332;28;20182;-81
2021/09/06 06:11:42;;;;;;;7.03;6.27;;;15.20;99.90;;;;;;5039709;28;20212;-81
2021/09/06 06:14:08;;;;;;;7.57;6.10;;;15.20;99.90;;;;;;5042326;28;20696;-81
2021/09/06 06:16:35;;;;;;;6.90;6.20;;;15.30;99.90;;;;;;5041867;28;20185;-82
2021/09/06 06:19:01;;;;;;;7.57;6.30;;;15.30;99.90;;;;;;5040345;28;20262;-81
2021/09/06 06:21:27;;;;;;;7.23;6.63;;;15.40;99.90;;;;;;5041618;28;20209;-81
2021/09/06 06:23:53;;;;;;;7.83;6.60;;;15.40;99.90;;;;;;5040890;28;20218;-81
2021/09/06 06:26:19;;;;;;;8.53;6.83;;;15.50;99.90;;;;;;5032002;28;20187;-81
2021/09/06 06:28:44;;;;;;;7.77;6.50;;;15.60;99.90;;;;;;5041569;28;20285;-82
2021/09/06 06:31:10;;;;;;;7.33;6.70;;;15.60;99.90;;;;;;5023019;28;20268;-81
2021/09/06 06:33:36;;;;;;;7.50;6.90;;;15.60;99.90;;;;;;5024447;28;20198;-82
2021/09/06 06:36:03;;;;;;;7.83;7.07;;;15.70;99.90;;;;;;5021310;28;20604;-82
2021/09/06 06:38:31;;;;;;;7.80;7.10;;;15.80;99.90;;;;;;5021665;28;20179;-82
2021/09/06 06:40:57;;;;;;;7.47;6.73;;;15.80;99.90;;;;;;5027163;28;20195;-82
2021/09/06 06:43:23;;;;;;;8.50;7.80;;;15.80;99.90;;;;;;5016467;28;20277;-81
2021/09/06 06:45:48;;;;;;;7.90;7.07;;;15.70;99.90;;;;;;5027692;28;20217;-83
2021/09/06 06:48:14;;;;;;;7.60;7.00;;;15.80;99.90;;;;;;5023399;28;20186;-82
2021/09/06 06:50:40;;;;;;;8.73;7.93;;;15.80;99.90;;;;;;5032062;28;20206;-81
2021/09/06 06:53:06;;;;;;;8.87;8.07;;;15.90;99.90;;;;;;5031719;28;20675;-81
2021/09/06 06:55:31;;;;;;;9.20;8.30;;;16.00;99.90;;;;;;5043623;28;20597;-81
2021/09/06 06:57:57;;;;;;;9.73;8.47;;;16.10;99.90;;;;;;5041440;28;20178;-81
2021/09/06 07:00:23;;;;;;;9.40;8.50;;;16.20;99.90;;;;;;5044323;28;20241;-81
2021/09/06 07:02:50;;;;;;;9.97;9.00;;;16.30;99.90;;;;;;5027116;28;20196;-82
2021/09/06 07:05:17;;;;;;;10.93;9.83;;;16.30;99.90;;;;;;5016490;28;20192;-80
2021/09/06 07:07:42;;;;;;;10.77;9.87;;;16.40;99.90;;;;;;5021104;28;20193;-80
2021/09/06 07:10:10;;;;;;;11.13;9.30;;;16.40;99.90;;;;;;5036158;28;20210;-81
2021/09/06 07:12:39;;;;;;;10.97;9.97;;;16.50;99.90;;;;;;5031680;28;20202;-81
2021/09/06 07:15:07;;;;;;;10.77;9.87;;;16.70;99.90;;;;;;5036793;28;20208;-81
2021/09/06 07:17:33;;;;;;;11.57;10.50;;;16.70;99.90;;;;;;5037182;28;20651;-81
2021/09/06 07:20:00;;;;;;;10.67;9.67;;;16.80;99.90;;;;;;5042823;28;20208;-81
2021/09/06 07:22:26;;;;;;;11.47;9.97;;;16.80;99.90;;;;;;5042445;28;20207;-81
2021/09/06 07:24:53;;;;;;;10.37;9.37;;;16.90;99.90;;;;;;5045481;28;20166;-81
2021/09/06 07:27:19;;;;;;;15.17;10.13;;;17.00;99.90;;;;;;5037032;28;20174;-81
2021/09/06 07:29:45;;;;;;;10.53;9.50;;;17.10;99.90;;;;;;5046207;28;20209;-81
2021/09/06 07:32:11;;;;;;;11.37;10.23;;;17.20;99.90;;;;;;5043526;28;20225;-81
2021/09/06 07:34:37;;;;;;;10.67;9.67;;;17.20;99.90;;;;;;5042762;28;20189;-81
2021/09/06 07:37:07;;;;;;;13.77;10.90;;;17.20;99.90;;;;;;5029575;28;20328;-81
2021/09/06 07:39:33;;;;;;;11.50;10.37;;;17.30;99.90;;;;;;5042653;28;20185;-81
2021/09/06 07:42:00;;;;;;;10.77;9.77;;;17.30;99.90;;;;;;5043377;28;20225;-82
2021/09/06 07:44:27;;;;;;;10.33;9.33;;;17.30;99.90;;;;;;5037842;28;20220;-81
2021/09/06 07:46:53;;;;;;;10.53;9.50;;;17.40;99.90;;;;;;5040223;28;20276;-81
2021/09/06 07:49:19;;;;;;;10.40;9.50;;;17.40;99.90;;;;;;5028814;28;20219;-80
2021/09/06 07:51:54;;;;;;;13.07;10.67;;;17.40;99.90;;;;;;5026614;28;20202;-80
2021/09/06 07:54:22;;;;;;;10.30;9.40;;;17.50;99.90;;;;;;5037026;28;20553;-81
2021/09/06 07:56:50;;;;;;;10.70;9.70;;;17.50;99.90;;;;;;5019609;28;20242;-80
2021/09/06 07:59:16;;;;;;;9.17;8.27;;;17.60;99.90;;;;;;5038201;28;20182;-80
2021/09/06 08:01:43;;;;;;;11.47;10.23;;;17.60;99.90;;;;;;5018469;28;20243;-81
2021/09/06 08:04:09;;;;;;;10.60;9.50;;;17.60;99.90;;;;;;5020225;28;20317;-81
2021/09/06 08:06:35;;;;;;;11.00;10.00;;;17.60;99.90;;;;;;5024441;28;20649;-81
2021/09/06 08:09:00;;;;;;;9.83;8.93;;;17.70;99.90;;;;;;5039337;28;20196;-80
2021/09/06 08:11:26;;;;;;;9.07;8.17;;;17.80;99.90;;;;;;5015042;28;20284;-81
2021/09/06 08:13:52;;;;;;;10.97;9.97;;;17.90;99.90;;;;;;5033193;28;20209;-81
2021/09/06 08:16:17;;;;;;;11.67;10.57;;;17.90;99.90;;;;;;5026015;28;20682;-81
2021/09/06 08:18:43;;;;;;;10.30;9.30;;;17.90;99.90;;;;;;5038003;28;20182;-81
2021/09/06 08:21:09;;;;;;;10.77;9.67;;;18.00;99.90;;;;;;5018955;28;20301;-81
2021/09/06 08:23:34;;;;;;;9.70;8.83;;;18.00;99.90;;;;;;5016993;28;20179;-82
2021/09/06 08:26:00;;;;;;;9.10;8.20;;;18.10;99.90;;;;;;5010314;28;20184;-81
2021/09/06 08:28:26;;;;;;;11.97;9.50;;;18.10;99.90;;;;;;5025327;28;20215;-81
2021/09/06 08:30:52;;;;;;;9.40;8.60;;;18.20;99.90;;;;;;5022413;28;20209;-81
2021/09/06 08:33:18;;;;;;;9.47;8.67;;;18.20;99.90;;;;;;5029027;28;20629;-81
2021/09/06 08:35:45;;;;;;;9.97;9.07;;;18.30;99.90;;;;;;5035813;28;20186;-81
2021/09/06 08:38:11;;;;;;;11.50;8.80;;;18.30;99.90;;;;;;5031171;28;20197;-81
2021/09/06 08:40:37;;;;;;;8.10;7.40;;;18.40;99.90;;;;;;5019964;28;20200;-81
2021/09/06 08:43:05;;;;;;;9.87;8.87;;;18.60;99.90;;;;;;5038718;28;20189;-81
2021/09/06 08:45:36;;;;;;;9.27;8.47;;;18.70;99.90;;;;;;5008906;28;20270;-81
2021/09/06 08:48:03;;;;;;;9.93;6.97;;;18.70;99.90;;;;;;5026608;28;20179;-81
2021/09/06 08:50:29;;;;;;;8.33;7.43;;;18.80;99.90;;;;;;5033259;28;20313;-78
2021/09/06 08:52:55;;;;;;;8.13;7.33;;;18.90;99.90;;;;;;5037756;28;20184;-81
2021/09/06 08:55:21;;;;;;;8.83;7.07;;;18.90;99.90;;;;;;5036624;28;20706;-81
2021/09/06 08:57:47;;;;;;;7.87;7.17;;;18.90;99.90;;;;;;5040647;28;20178;-81
2021/09/06 09:00:13;;;;;;;8.37;7.10;;;18.90;99.90;;;;;;5035201;28;20210;-81
2021/09/06 09:02:42;;;;;;;7.70;7.03;;;18.90;99.90;;;;;;5033546;28;20209;-81
2021/09/06 09:05:10;;;;;;;6.97;6.37;;;18.90;99.90;;;;;;5019527;28;20202;-81
2021/09/06 09:07:39;;;;;;;7.70;7.00;;;18.90;99.90;;;;;;5045788;28;20275;-81
2021/09/06 09:10:09;;;;;;;11.17;6.67;;;19.00;99.90;;;;;;5020406;28;20172;-81
2021/09/06 09:12:38;;;;;;;7.77;7.07;;;19.00;99.90;;;;;;5019916;28;20221;-82
2021/09/06 09:15:05;;;;;;;9.63;7.00;;;19.10;99.90;;;;;;5021239;28;20264;-81
2021/09/06 09:17:31;;;;;;;7.90;7.20;;;19.10;99.90;;;;;;5018083;28;20179;-81
2021/09/06 09:20:05;;;;;;;8.07;7.17;;;19.20;99.90;;;;;;5008393;28;20569;-81
2021/09/06 09:22:34;;;;;;;7.60;6.90;;;19.30;99.90;;;;;;5028121;28;20202;-81
2021/09/06 09:25:03;;;;;;;7.37;6.67;;;19.40;99.90;;;;;;5035140;28;20262;-81
2021/09/06 09:27:52;;;;;;;9.03;6.53;;;19.50;99.90;;;;;;5016645;28;20569;-81
2021/09/06 09:30:23;;;;;;;9.17;7.20;;;19.50;99.90;;;;;;5022744;28;20179;-81
2021/09/06 09:33:11;;;;;;;8.23;7.13;;;19.60;99.90;;;;;;5026426;28;20558;-81
2021/09/06 09:35:37;;;;;;;8.37;7.27;;;19.60;99.90;;;;;;5014482;28;20191;-81
2021/09/06 09:38:08;;;;;;;7.77;6.50;;;19.80;99.90;;;;;;5024806;28;20182;-81
2021/09/06 09:40:39;;;;;;;7.30;6.60;;;19.90;99.90;;;;;;5017970;28;20218;-81
2021/09/06 09:43:06;;;;;;;7.90;7.10;;;20.00;99.90;;;;;;5027210;28;20175;-81
2021/09/06 09:45:32;;;;;;;8.20;7.07;;;20.00;99.90;;;;;;5026194;28;20202;-83
2021/09/06 09:47:59;;;;;;;7.67;6.97;;;20.20;99.90;;;;;;5014307;28;20186;-81
2021/09/06 09:50:27;;;;;;;6.57;5.97;;;20.20;99.90;;;;;;5018251;28;20228;-81
2021/09/06 09:52:53;;;;;;;7.17;6.50;;;20.40;99.90;;;;;;5023139;28;20250;-82
2021/09/06 09:55:20;;;;;;;8.97;6.17;;;20.40;99.90;;;;;;5019554;28;20257;-81
2021/09/06 09:57:45;;;;;;;6.07;5.47;;;20.50;99.90;;;;;;5026240;28;20182;-81
2021/09/06 10:00:14;;;;;;;6.90;6.20;;;20.60;99.90;;;;;;5039352;28;20194;-81
2021/09/06 10:02:49;;;;;;;7.20;6.50;;;20.70;99.90;;;;;;5028539;28;20202;-81
2021/09/06 10:05:16;;;;;;;5.80;5.30;;;20.80;99.90;;;;;;5029113;28;20270;-82
2021/09/06 10:07:46;;;;;;;6.37;5.87;;;21.00;99.90;;;;;;5036276;28;20178;-81
2021/09/06 10:10:17;;;;;;;7.73;6.13;;;21.10;99.90;;;;;;5034609;28;20190;-82
2021/09/06 10:13:07;;;;;;;7.00;5.50;;;21.20;99.90;;;;;;5026734;28;20723;-82
2021/09/06 10:15:34;;;;;;;7.23;5.40;;;21.40;99.90;;;;;;5023767;28;20194;-81
2021/09/06 10:18:16;;;;;;;6.17;5.57;;;21.60;99.90;;;;;;5040486;28;20229;-83
2021/09/06 10:20:42;;;;;;;6.10;5.60;;;21.60;99.90;;;;;;5040828;28;20665;-82
2021/09/06 10:23:10;;;;;;;6.23;5.70;;;21.70;99.90;;;;;;5033520;28;20182;-83
2021/09/06 10:25:38;;;;;;;6.17;5.13;;;21.80;99.90;;;;;;5032740;28;20171;-83
2021/09/06 10:28:06;;;;;;;6.17;5.67;;;21.80;99.90;;;;;;5029408;28;20230;-83
2021/09/06 10:30:36;;;;;;;6.27;5.77;;;22.00;99.90;;;;;;5031336;28;20829;-83
2021/09/06 10:33:03;;;;;;;6.60;6.00;;;22.00;99.90;;;;;;5022743;28;20216;-82
2021/09/06 10:35:29;;;;;;;7.50;5.90;;;22.10;99.90;;;;;;5014450;28;20190;-83
2021/09/06 10:38:08;;;;;;;7.70;5.63;;;22.20;99.90;;;;;;5016564;28;20254;-82
2021/09/06 10:40:37;;;;;;;5.70;5.10;;;22.20;99.90;;;;;;5023430;28;20206;-83
2021/09/06 10:43:17;;;;;;;8.63;5.37;;;22.20;99.90;;;;;;5022190;28;20236;-82
2021/09/06 10:45:46;;;;;;;6.23;5.70;;;22.30;99.90;;;;;;5020217;28;20194;-83
2021/09/06 10:48:21;;;;;;;6.53;5.20;;;22.50;99.90;;;;;;5014916;28;20184;-83
2021/09/06 10:50:48;;;;;;;5.27;4.87;;;22.70;99.90;;;;;;5018755;28;20213;-82
2021/09/06 10:53:21;;;;;;;6.40;5.57;;;22.80;99.90;;;;;;5014192;28;20247;-83
2021/09/06 10:55:53;;;;;;;5.73;5.23;;;22.80;99.90;;;;;;5026736;28;20269;-83
2021/09/06 10:58:21;;;;;;;5.97;5.47;;;22.80;99.90;;;;;;5025234;28;20210;-82
2021/09/06 11:00:54;;;;;;;5.40;4.90;;;22.80;99.90;;;;;;5024802;28;20220;-82
2021/09/06 11:03:21;;;;;;;7.37;4.77;;;22.90;99.90;;;;;;5023040;28;20201;-83
2021/09/06 11:06:05;;;;;;;6.40;5.67;;;23.10;99.90;;;;;;5024833;28;20225;-82
2021/09/06 11:08:34;;;;;;;5.83;4.70;;;23.00;99.90;;;;;;5023428;28;20650;-83
2021/09/06 11:11:02;;;;;;;5.97;5.07;;;23.10;99.90;;;;;;5025332;28;20281;-83
2021/09/06 11:13:45;;;;;;;5.37;4.87;;;23.20;99.90;;;;;;5042592;28;20174;-83
2021/09/06 11:16:16;;;;;;;5.27;4.77;;;23.50;99.90;;;;;;5040661;28;20170;-83
2021/09/06 11:18:44;;;;;;;5.20;4.80;;;23.70;99.90;;;;;;5034222;28;20188;-83
2021/09/06 11:21:11;;;;;;;6.50;4.83;;;23.60;99.90;;;;;;5022482;28;20207;-82
2021/09/06 11:23:40;;;;;;;4.83;4.43;;;23.60;99.90;;;;;;5044100;28;20175;-82
2021/09/06 11:26:07;;;;;;;4.90;4.50;;;23.60;99.90;;;;;;5043418;28;20198;-82
2021/09/06 11:28:33;;;;;;;5.10;4.47;;;23.70;99.90;;;;;;5043652;28;20220;-82
2021/09/06 11:30:59;;;;;;;5.27;4.60;;;23.90;99.90;;;;;;5040532;28;20636;-83
2021/09/06 11:33:27;;;;;;;5.00;4.50;;;23.90;99.90;;;;;;5032915;28;20237;-83
2021/09/06 11:35:53;;;;;;;4.67;4.27;;;24.10;99.90;;;;;;5034418;28;20210;-82
2021/09/06 11:38:19;;;;;;;4.50;4.10;;;24.20;99.90;;;;;;5035950;28;20179;-83
2021/09/06 11:40:56;;;;;;;5.83;4.37;;;24.00;99.90;;;;;;5032721;28;20273;-84
2021/09/06 11:43:24;;;;;;;4.87;4.47;;;23.90;99.90;;;;;;5042682;28;20166;-82
2021/09/06 11:45:58;;;;;;;5.43;4.47;;;24.00;99.90;;;;;;5037122;28;20178;-82
2021/09/06 11:48:23;;;;;;;5.40;4.60;;;24.00;99.90;;;;;;5031016;28;20186;-82
2021/09/06 11:50:50;;;;;;;9.33;4.90;;;24.30;99.90;;;;;;5019857;28;20199;-83
2021/09/06 11:53:18;;;;;;;4.97;4.50;;;24.60;99.90;;;;;;5018468;28;20175;-83
2021/09/06 11:55:53;;;;;;;6.27;5.30;;;24.50;99.90;;;;;;5029402;28;20273;-82
2021/09/06 11:58:24;;;;;;;7.67;5.13;;;24.60;99.90;;;;;;5032376;28;20184;-82
2021/09/06 12:00:49;;;;;;;6.27;5.20;;;24.60;99.90;;;;;;5015064;28;20207;-83
2021/09/06 12:03:25;;;;;;;5.47;4.97;;;24.60;99.90;;;;;;5014384;28;20190;-82
2021/09/06 12:06:01;;;;;;;5.27;4.77;;;24.50;99.90;;;;;;5020817;28;20179;-83
2021/09/06 12:08:27;;;;;;;6.07;4.60;;;24.50;99.90;;;;;;5021112;28;20537;-83
2021/09/06 12:11:04;;;;;;;6.57;4.57;;;24.70;99.90;;;;;;5011222;28;20199;-83
2021/09/06 12:13:34;;;;;;;4.77;4.37;;;24.70;99.90;;;;;;5010254;28;20168;-83
2021/09/06 12:16:05;;;;;;;6.20;4.50;;;25.00;99.90;;;;;;5021394;28;20175;-83
2021/09/06 12:18:41;;;;;;;4.40;3.40;;;25.00;99.90;;;;;;5011522;28;20195;-83
2021/09/06 12:21:13;;;;;;;4.83;3.87;;;24.90;99.90;;;;;;5018675;28;20202;-83
2021/09/06 12:23:41;;;;;;;4.03;3.73;;;24.80;99.90;;;;;;5007327;28;20190;-82
2021/09/06 12:26:09;;;;;;;4.60;4.20;;;24.70;99.90;;;;;;5007664;28;20167;-82
2021/09/06 12:28:47;;;;;;;4.83;4.43;;;24.80;99.90;;;;;;5016144;28;20172;-83
2021/09/06 12:31:13;;;;;;;4.07;3.77;;;25.00;99.90;;;;;;4999456;28;20214;-82
2021/09/06 12:33:38;;;;;;;10.73;4.67;;;25.10;99.90;;;;;;5000560;28;20195;-82
2021/09/06 12:36:04;;;;;;;4.60;3.80;;;25.10;99.90;;;;;;4999653;28;20194;-82
2021/09/06 12:38:31;;;;;;;4.60;4.20;;;25.10;99.90;;;;;;5012555;28;20192;-82
2021/09/06 12:40:57;;;;;;;4.47;4.17;;;25.10;99.90;;;;;;5022896;28;20302;-82
2021/09/06 12:43:22;;;;;;;4.47;4.07;;;25.10;99.90;;;;;;5015827;28;20259;-82
2021/09/06 12:45:49;;;;;;;4.30;3.97;;;25.10;99.90;;;;;;5016368;28;20179;-82